Terminal Aerodrome Forecast
Issued by NWS

Home | Current Version | Previous Version | Text Only | Print | Product List | Glossary On
Versions: 1 2 3 4 5 6 7 8 9 10 11 12 13
000
FTUS41 KPHI 211100
TAFPNE
TAF
KPNE 211132Z 2112/2212 20003KT P6SM FEW050 BKN150
     FM211600 26005KT P6SM SCT050 BKN100
     FM212100 33005KT P6SM -SHRA BKN050
     FM220200 36003KT P6SM VCSH OVC040
     FM220700 03008KT 6SM -RA SCT025 OVC040
     FM221100 03010KT 4SM -RA BR OVC025=

USA.gov is the U.S. government's official web portal to all federal, state and local government web resources and services.